sensor_id;sensor_type;location;lat;lon;timestamp;pressure;altitude;pressure_sealevel;temperature;humidity
27705;BME280;15109;50.992;6.918;2023-02-16T00:02:24;101952.84;;;3.69;100.00
27705;BME280;15109;50.992;6.918;2023-02-16T00:05:45;101956.66;;;3.67;100.00
27705;BME280;15109;50.992;6.918;2023-02-16T00:09:05;101952.97;;;3.67;100.00
27705;BME280;15109;50.992;6.918;2023-02-16T00:12:26;101948.34;;;3.57;100.00
27705;BME280;15109;50.992;6.918;2023-02-16T00:16:09;101956.66;;;3.54;100.00
27705;BME280;15109;50.992;6.918;2023-02-16T00:19:36;101959.84;;;3.48;100.00
27705;BME280;15109;50.992;6.918;2023-02-16T00:22:58;101960.25;;;3.42;100.00
27705;BME280;15109;50.992;6.918;2023-02-16T00:26:22;101954.31;;;3.37;100.00
27705;BME280;15109;50.992;6.918;2023-02-16T00:29:45;101955.63;;;3.44;100.00
27705;BME280;15109;50.992;6.918;2023-02-16T00:33:24;101959.06;;;3.46;100.00
27705;BME280;15109;50.992;6.918;2023-02-16T00:36:44;101954.69;;;3.32;100.00
27705;BME280;15109;50.992;6.918;2023-02-16T00:40:05;101962.88;;;3.43;100.00
27705;BME280;15109;50.992;6.918;2023-02-16T00:43:27;101950.22;;;3.44;100.00
27705;BME280;15109;50.992;6.918;2023-02-16T00:46:48;101962.56;;;3.35;100.00
27705;BME280;15109;50.992;6.918;2023-02-16T00:53:39;101944.06;;;3.16;100.00
27705;BME280;15109;50.992;6.918;2023-02-16T00:57:00;101942.88;;;3.08;100.00
27705;BME280;15109;50.992;6.918;2023-02-16T01:00:25;101944.19;;;3.02;100.00
27705;BME280;15109;50.992;6.918;2023-02-16T01:03:47;101939.00;;;2.99;100.00
27705;BME280;15109;50.992;6.918;2023-02-16T01:07:10;101943.66;;;2.97;100.00
27705;BME280;15109;50.992;6.918;2023-02-16T01:10:50;101940.66;;;3.02;100.00
27705;BME280;15109;50.992;6.918;2023-02-16T01:14:30;101929.47;;;2.94;100.00
27705;BME280;15109;50.992;6.918;2023-02-16T01:17:53;101928.09;;;3.01;100.00
27705;BME280;15109;50.992;6.918;2023-02-16T01:21:15;101928.75;;;3.04;100.00
27705;BME280;15109;50.992;6.918;2023-02-16T01:24:36;101925.50;;;2.99;100.00
27705;BME280;15109;50.992;6.918;2023-02-16T01:27:57;101922.25;;;2.94;100.00
27705;BME280;15109;50.992;6.918;2023-02-16T01:31:18;101924.31;;;2.91;100.00
27705;BME280;15109;50.992;6.918;2023-02-16T01:34:39;101917.31;;;2.88;100.00
27705;BME280;15109;50.992;6.918;2023-02-16T01:38:00;101922.78;;;2.87;100.00
27705;BME280;15109;50.992;6.918;2023-02-16T01:41:25;101922.78;;;2.99;100.00
27705;BME280;15109;50.992;6.918;2023-02-16T01:44:53;101920.19;;;2.98;100.00
27705;BME280;15109;50.992;6.918;2023-02-16T01:48:21;101916.75;;;2.96;100.00
27705;BME280;15109;50.992;6.918;2023-02-16T02:01:54;101917.81;;;2.81;100.00
27705;BME280;15109;50.992;6.918;2023-02-16T02:12:33;101918.47;;;2.71;100.00
27705;BME280;15109;50.992;6.918;2023-02-16T02:15:58;101904.31;;;2.68;100.00
27705;BME280;15109;50.992;6.918;2023-02-16T02:19:20;101912.53;;;2.66;100.00
27705;BME280;15109;50.992;6.918;2023-02-16T02:22:48;101912.84;;;2.62;100.00
27705;BME280;15109;50.992;6.918;2023-02-16T02:26:58;101909.81;;;2.54;100.00
27705;BME280;15109;50.992;6.918;2023-02-16T02:44:01;101884.72;;;2.26;100.00
27705;BME280;15109;50.992;6.918;2023-02-16T02:51:07;101899.09;;;2.40;100.00
27705;BME280;15109;50.992;6.918;2023-02-16T02:54:49;101900.28;;;2.36;100.00
27705;BME280;15109;50.992;6.918;2023-02-16T02:58:31;101895.44;;;2.28;100.00
27705;BME280;15109;50.992;6.918;2023-02-16T03:02:11;101883.94;;;2.24;100.00
27705;BME280;15109;50.992;6.918;2023-02-16T03:05:34;101886.22;;;2.18;100.00
27705;BME280;15109;50.992;6.918;2023-02-16T03:08:59;101879.94;;;2.17;100.00
27705;BME280;15109;50.992;6.918;2023-02-16T03:12:21;101869.06;;;2.19;100.00
27705;BME280;15109;50.992;6.918;2023-02-16T03:16:02;101871.63;;;2.20;100.00
27705;BME280;15109;50.992;6.918;2023-02-16T03:19:25;101875.63;;;2.15;100.00
27705;BME280;15109;50.992;6.918;2023-02-16T03:23:04;101879.63;;;2.09;100.00
27705;BME280;15109;50.992;6.918;2023-02-16T03:26:44;101871.63;;;2.08;100.00
27705;BME280;15109;50.992;6.918;2023-02-16T03:30:25;101868.81;;;2.09;100.00
27705;BME280;15109;50.992;6.918;2023-02-16T03:33:46;101860.16;;;2.04;100.00
27705;BME280;15109;50.992;6.918;2023-02-16T03:37:13;101856.50;;;2.05;100.00
27705;BME280;15109;50.992;6.918;2023-02-16T03:40:34;101846.28;;;2.10;100.00
27705;BME280;15109;50.992;6.918;2023-02-16T03:44:00;101859.78;;;2.23;100.00
27705;BME280;15109;50.992;6.918;2023-02-16T03:47:21;101841.97;;;2.20;100.00
27705;BME280;15109;50.992;6.918;2023-02-16T03:50:41;101852.66;;;2.22;100.00
27705;BME280;15109;50.992;6.918;2023-02-16T03:54:02;101850.72;;;2.24;100.00
27705;BME280;15109;50.992;6.918;2023-02-16T03:57:23;101858.59;;;2.27;100.00
27705;BME280;15109;50.992;6.918;2023-02-16T04:00:44;101862.28;;;2.26;100.00
27705;BME280;15109;50.992;6.918;2023-02-16T04:04:05;101853.00;;;2.30;100.00
27705;BME280;15109;50.992;6.918;2023-02-16T04:07:26;101851.63;;;2.37;100.00
27705;BME280;15109;50.992;6.918;2023-02-16T04:10:46;101862.72;;;2.33;100.00
27705;BME280;15109;50.992;6.918;2023-02-16T04:14:08;101848.91;;;2.37;100.00
27705;BME280;15109;50.992;6.918;2023-02-16T04:17:28;101856.47;;;2.32;100.00
27705;BME280;15109;50.992;6.918;2023-02-16T04:20:49;101847.38;;;2.33;100.00
27705;BME280;15109;50.992;6.918;2023-02-16T04:24:10;101858.94;;;2.35;100.00
27705;BME280;15109;50.992;6.918;2023-02-16T04:27:31;101851.72;;;2.36;100.00
27705;BME280;15109;50.992;6.918;2023-02-16T04:30:52;101844.81;;;2.44;100.00
27705;BME280;15109;50.992;6.918;2023-02-16T04:34:12;101853.97;;;2.42;100.00
27705;BME280;15109;50.992;6.918;2023-02-16T04:37:33;101857.66;;;2.41;100.00
27705;BME280;15109;50.992;6.918;2023-02-16T04:40:54;101854.31;;;2.37;100.00
27705;BME280;15109;50.992;6.918;2023-02-16T04:44:15;101855.69;;;2.43;100.00
27705;BME280;15109;50.992;6.918;2023-02-16T04:47:36;101856.56;;;2.43;100.00
27705;BME280;15109;50.992;6.918;2023-02-16T04:50:57;101856.34;;;2.46;100.00
27705;BME280;15109;50.992;6.918;2023-02-16T04:54:17;101857.53;;;2.55;100.00
27705;BME280;15109;50.992;6.918;2023-02-16T04:57:38;101858.63;;;2.52;100.00
27705;BME280;15109;50.992;6.918;2023-02-16T05:00:59;101852.81;;;2.58;100.00
27705;BME280;15109;50.992;6.918;2023-02-16T05:04:20;101849.66;;;2.64;100.00
27705;BME280;15109;50.992;6.918;2023-02-16T05:07:41;101850.53;;;2.65;100.00
27705;BME280;15109;50.992;6.918;2023-02-16T05:11:02;101847.50;;;2.69;100.00
27705;BME280;15109;50.992;6.918;2023-02-16T05:14:41;101849.97;;;2.60;100.00
27705;BME280;15109;50.992;6.918;2023-02-16T05:18:02;101850.44;;;2.66;100.00
27705;BME280;15109;50.992;6.918;2023-02-16T05:21:23;101846.78;;;2.67;100.00
27705;BME280;15109;50.992;6.918;2023-02-16T05:24:50;101843.19;;;2.67;100.00
27705;BME280;15109;50.992;6.918;2023-02-16T05:28:11;101847.72;;;2.66;100.00
27705;BME280;15109;50.992;6.918;2023-02-16T05:31:32;101853.47;;;2.62;100.00
27705;BME280;15109;50.992;6.918;2023-02-16T05:34:53;101858.09;;;2.60;100.00
27705;BME280;15109;50.992;6.918;2023-02-16T05:38:14;101860.59;;;2.63;100.00
27705;BME280;15109;50.992;6.918;2023-02-16T05:41:34;101857.88;;;2.63;100.00
27705;BME280;15109;50.992;6.918;2023-02-16T05:44:55;101854.50;;;2.59;100.00
27705;BME280;15109;50.992;6.918;2023-02-16T05:48:16;101854.09;;;2.53;100.00
27705;BME280;15109;50.992;6.918;2023-02-16T05:51:37;101854.09;;;2.53;100.00
27705;BME280;15109;50.992;6.918;2023-02-16T05:54:58;101858.00;;;2.61;100.00
27705;BME280;15109;50.992;6.918;2023-02-16T05:58:18;101861.44;;;2.63;100.00
27705;BME280;15109;50.992;6.918;2023-02-16T06:01:39;101855.38;;;2.60;100.00
27705;BME280;15109;50.992;6.918;2023-02-16T06:05:00;101860.47;;;2.64;100.00
27705;BME280;15109;50.992;6.918;2023-02-16T06:08:21;101849.88;;;2.61;100.00
27705;BME280;15109;50.992;6.918;2023-02-16T06:11:42;101850.22;;;2.69;100.00
27705;BME280;15109;50.992;6.918;2023-02-16T06:15:03;101849.13;;;2.72;100.00
27705;BME280;15109;50.992;6.918;2023-02-16T06:18:24;101848.69;;;2.65;100.00
27705;BME280;15109;50.992;6.918;2023-02-16T06:21:46;101848.78;;;2.77;100.00
27705;BME280;15109;50.992;6.918;2023-02-16T06:25:07;101854.63;;;2.83;100.00
27705;BME280;15109;50.992;6.918;2023-02-16T06:28:28;101854.06;;;2.91;100.00
27705;BME280;15109;50.992;6.918;2023-02-16T06:31:49;101868.03;;;2.97;100.00
27705;BME280;15109;50.992;6.918;2023-02-16T06:35:09;101845.22;;;3.01;100.00
27705;BME280;15109;50.992;6.918;2023-02-16T06:38:30;101862.06;;;3.05;100.00
27705;BME280;15109;50.992;6.918;2023-02-16T06:41:51;101867.34;;;3.06;100.00
27705;BME280;15109;50.992;6.918;2023-02-16T06:45:12;101862.47;;;3.11;100.00
27705;BME280;15109;50.992;6.918;2023-02-16T06:48:32;101868.94;;;3.22;100.00
27705;BME280;15109;50.992;6.918;2023-02-16T06:51:53;101867.31;;;3.32;100.00
27705;BME280;15109;50.992;6.918;2023-02-16T06:55:14;101867.38;;;3.43;100.00
27705;BME280;15109;50.992;6.918;2023-02-16T06:58:35;101854.28;;;3.49;100.00
27705;BME280;15109;50.992;6.918;2023-02-16T07:01:56;101866.59;;;3.53;100.00
27705;BME280;15109;50.992;6.918;2023-02-16T07:05:17;101857.78;;;3.62;100.00
27705;BME280;15109;50.992;6.918;2023-02-16T07:08:38;101869.97;;;3.68;100.00
27705;BME280;15109;50.992;6.918;2023-02-16T07:11:58;101894.56;;;3.65;100.00
27705;BME280;15109;50.992;6.918;2023-02-16T07:15:19;101876.53;;;3.77;100.00
27705;BME280;15109;50.992;6.918;2023-02-16T07:18:40;101877.19;;;3.80;100.00
27705;BME280;15109;50.992;6.918;2023-02-16T07:22:01;101866.19;;;3.94;100.00
27705;BME280;15109;50.992;6.918;2023-02-16T07:25:22;101873.72;;;4.02;100.00
27705;BME280;15109;50.992;6.918;2023-02-16T07:28:45;101882.00;;;4.11;100.00
27705;BME280;15109;50.992;6.918;2023-02-16T07:32:06;101876.00;;;4.19;100.00
27705;BME280;15109;50.992;6.918;2023-02-16T07:35:26;101875.78;;;4.22;100.00
27705;BME280;15109;50.992;6.918;2023-02-16T07:38:47;101875.91;;;4.21;100.00
27705;BME280;15109;50.992;6.918;2023-02-16T07:42:08;101878.97;;;4.27;100.00
27705;BME280;15109;50.992;6.918;2023-02-16T07:45:29;101873.81;;;4.24;100.00
27705;BME280;15109;50.992;6.918;2023-02-16T07:48:52;101873.81;;;4.24;100.00
27705;BME280;15109;50.992;6.918;2023-02-16T07:52:13;101867.69;;;4.33;100.00
27705;BME280;15109;50.992;6.918;2023-02-16T07:55:43;101876.44;;;4.37;100.00
27705;BME280;15109;50.992;6.918;2023-02-16T07:59:04;101871.19;;;4.46;100.00
27705;BME280;15109;50.992;6.918;2023-02-16T08:02:25;101880.44;;;4.55;100.00
27705;BME280;15109;50.992;6.918;2023-02-16T08:05:46;101877.13;;;4.63;100.00
27705;BME280;15109;50.992;6.918;2023-02-16T08:09:07;101880.72;;;4.74;100.00
27705;BME280;15109;50.992;6.918;2023-02-16T08:12:28;101870.72;;;4.75;100.00
27705;BME280;15109;50.992;6.918;2023-02-16T08:15:49;101870.13;;;4.82;100.00
27705;BME280;15109;50.992;6.918;2023-02-16T08:19:10;101871.63;;;4.86;100.00
27705;BME280;15109;50.992;6.918;2023-02-16T08:22:33;101862.63;;;4.86;100.00
27705;BME280;15109;50.992;6.918;2023-02-16T08:25:54;101871.63;;;4.86;100.00
27705;BME280;15109;50.992;6.918;2023-02-16T08:29:18;101872.13;;;4.91;100.00
27705;BME280;15109;50.992;6.918;2023-02-16T08:32:39;101865.09;;;4.89;100.00
27705;BME280;15109;50.992;6.918;2023-02-16T08:36:00;101857.47;;;4.94;100.00
27705;BME280;15109;50.992;6.918;2023-02-16T08:39:23;101860.91;;;4.96;100.00
27705;BME280;15109;50.992;6.918;2023-02-16T08:42:45;101864.81;;;4.92;100.00
27705;BME280;15109;50.992;6.918;2023-02-16T08:46:06;101858.94;;;4.98;100.00
27705;BME280;15109;50.992;6.918;2023-02-16T08:49:27;101866.59;;;5.04;100.00
27705;BME280;15109;50.992;6.918;2023-02-16T08:52:48;101873.13;;;5.13;100.00
27705;BME280;15109;50.992;6.918;2023-02-16T08:56:09;101869.03;;;5.18;100.00
27705;BME280;15109;50.992;6.918;2023-02-16T08:59:30;101867.69;;;5.24;100.00
27705;BME280;15109;50.992;6.918;2023-02-16T09:02:52;101876.44;;;5.16;100.00
27705;BME280;15109;50.992;6.918;2023-02-16T09:06:14;101881.50;;;5.21;100.00
27705;BME280;15109;50.992;6.918;2023-02-16T09:09:35;101883.59;;;5.17;100.00
27705;BME280;15109;50.992;6.918;2023-02-16T09:12:56;101877.53;;;5.14;100.00
27705;BME280;15109;50.992;6.918;2023-02-16T09:16:19;101893.31;;;5.20;100.00
27705;BME280;15109;50.992;6.918;2023-02-16T09:19:40;101889.09;;;5.27;100.00
27705;BME280;15109;50.992;6.918;2023-02-16T09:23:03;101890.97;;;5.37;100.00
27705;BME280;15109;50.992;6.918;2023-02-16T09:26:24;101886.59;;;5.57;100.00
27705;BME280;15109;50.992;6.918;2023-02-16T09:29:45;101882.84;;;5.91;100.00
27705;BME280;15109;50.992;6.918;2023-02-16T09:33:06;101882.38;;;6.29;100.00
27705;BME280;15109;50.992;6.918;2023-02-16T09:36:27;101876.16;;;6.59;100.00
27705;BME280;15109;50.992;6.918;2023-02-16T09:39:48;101867.84;;;6.81;100.00
27705;BME280;15109;50.992;6.918;2023-02-16T09:43:16;101872.09;;;7.05;100.00
27705;BME280;15109;50.992;6.918;2023-02-16T09:46:40;101872.66;;;7.29;100.00
27705;BME280;15109;50.992;6.918;2023-02-16T09:50:04;101877.44;;;7.46;100.00
27705;BME280;15109;50.992;6.918;2023-02-16T09:53:36;101877.16;;;7.49;100.00
27705;BME280;15109;50.992;6.918;2023-02-16T09:57:04;101890.81;;;7.59;100.00
27705;BME280;15109;50.992;6.918;2023-02-16T10:04:54;101900.59;;;7.81;100.00
27705;BME280;15109;50.992;6.918;2023-02-16T10:07:41;101904.34;;;7.99;100.00
27705;BME280;15109;50.992;6.918;2023-02-16T10:11:11;101900.06;;;8.06;100.00
27705;BME280;15109;50.992;6.918;2023-02-16T10:18:19;101903.38;;;8.19;100.00
27705;BME280;15109;50.992;6.918;2023-02-16T10:21:42;101889.75;;;8.29;100.00
27705;BME280;15109;50.992;6.918;2023-02-16T10:25:10;101897.91;;;8.29;100.00
27705;BME280;15109;50.992;6.918;2023-02-16T10:32:11;101895.63;;;8.24;100.00
27705;BME280;15109;50.992;6.918;2023-02-16T10:35:48;101893.91;;;8.23;100.00
27705;BME280;15109;50.992;6.918;2023-02-16T10:42:35;101893.34;;;8.19;100.00
27705;BME280;15109;50.992;6.918;2023-02-16T10:45:56;101891.06;;;8.15;100.00
27705;BME280;15109;50.992;6.918;2023-02-16T10:49:21;101900.66;;;8.09;100.00
27705;BME280;15109;50.992;6.918;2023-02-16T10:52:43;101897.91;;;8.09;100.00
27705;BME280;15109;50.992;6.918;2023-02-16T10:59:44;101893.03;;;8.03;100.00
27705;BME280;15109;50.992;6.918;2023-02-16T11:03:05;101882.69;;;8.07;100.00
27705;BME280;15109;50.992;6.918;2023-02-16T11:06:30;101875.56;;;8.06;100.00
27705;BME280;15109;50.992;6.918;2023-02-16T11:09:52;101879.72;;;8.10;100.00
27705;BME280;15109;50.992;6.918;2023-02-16T11:16:41;101864.53;;;8.46;100.00
27705;BME280;15109;50.992;6.918;2023-02-16T11:20:04;101861.53;;;8.58;100.00
27705;BME280;15109;50.992;6.918;2023-02-16T11:23:26;101860.47;;;8.69;100.00
27705;BME280;15109;50.992;6.918;2023-02-16T11:26:57;101848.13;;;8.84;100.00
27705;BME280;15109;50.992;6.918;2023-02-16T11:30:21;101845.84;;;9.07;100.00
27705;BME280;15109;50.992;6.918;2023-02-16T11:33:58;101853.16;;;9.16;100.00
27705;BME280;15109;50.992;6.918;2023-02-16T11:40:44;101841.53;;;9.41;100.00
27705;BME280;15109;50.992;6.918;2023-02-16T11:47:43;101830.47;;;9.70;100.00
27705;BME280;15109;50.992;6.918;2023-02-16T11:51:12;101821.94;;;9.73;100.00
27705;BME280;15109;50.992;6.918;2023-02-16T11:54:36;101820.31;;;9.80;100.00
27705;BME280;15109;50.992;6.918;2023-02-16T11:58:11;101819.31;;;9.81;100.00
27705;BME280;15109;50.992;6.918;2023-02-16T12:15:18;101788.94;;;9.84;100.00
27705;BME280;15109;50.992;6.918;2023-02-16T12:22:21;101802.22;;;9.62;100.00
27705;BME280;15109;50.992;6.918;2023-02-16T12:29:21;101798.16;;;9.66;100.00
27705;BME280;15109;50.992;6.918;2023-02-16T12:33:00;101802.25;;;9.52;100.00
27705;BME280;15109;50.992;6.918;2023-02-16T12:43:47;101794.28;;;9.41;100.00
27705;BME280;15109;50.992;6.918;2023-02-16T12:47:10;101786.53;;;9.36;100.00
27705;BME280;15109;50.992;6.918;2023-02-16T12:50:33;101796.63;;;9.36;100.00
27705;BME280;15109;50.992;6.918;2023-02-16T12:57:34;101769.19;;;9.73;100.00
27705;BME280;15109;50.992;6.918;2023-02-16T13:00:57;101769.25;;;9.63;100.00
27705;BME280;15109;50.992;6.918;2023-02-16T13:07:51;101743.75;;;9.72;100.00
27705;BME280;15109;50.992;6.918;2023-02-16T13:11:22;101751.63;;;9.75;100.00
27705;BME280;15109;50.992;6.918;2023-02-16T13:14:44;101755.63;;;9.81;100.00
27705;BME280;15109;50.992;6.918;2023-02-16T13:18:14;101740.75;;;10.01;100.00
27705;BME280;15109;50.992;6.918;2023-02-16T13:21:58;101730.28;;;10.14;100.00
27705;BME280;15109;50.992;6.918;2023-02-16T13:42:51;101726.41;;;10.68;100.00
27705;BME280;15109;50.992;6.918;2023-02-16T13:46:17;101724.50;;;10.95;100.00
27705;BME280;15109;50.992;6.918;2023-02-16T13:49:42;101710.84;;;11.03;100.00
27705;BME280;15109;50.992;6.918;2023-02-16T13:53:16;101698.41;;;11.16;100.00
27705;BME280;15109;50.992;6.918;2023-02-16T13:56:38;101689.47;;;11.14;100.00
27705;BME280;15109;50.992;6.918;2023-02-16T14:00:00;101678.16;;;11.01;100.00
27705;BME280;15109;50.992;6.918;2023-02-16T14:06:42;101666.53;;;10.99;100.00
27705;BME280;15109;50.992;6.918;2023-02-16T14:10:03;101664.97;;;11.05;100.00
27705;BME280;15109;50.992;6.918;2023-02-16T14:13:42;101663.44;;;10.94;100.00
27705;BME280;15109;50.992;6.918;2023-02-16T14:20:37;101658.44;;;10.89;100.00
27705;BME280;15109;50.992;6.918;2023-02-16T14:23:59;101663.66;;;11.09;100.00
27705;BME280;15109;50.992;6.918;2023-02-16T14:31:01;101653.59;;;11.33;100.00
27705;BME280;15109;50.992;6.918;2023-02-16T14:34:24;101654.47;;;11.34;100.00
27705;BME280;15109;50.992;6.918;2023-02-16T14:59:01;101634.28;;;11.59;100.00
27705;BME280;15109;50.992;6.918;2023-02-16T15:05:48;101637.03;;;11.51;100.00
27705;BME280;15109;50.992;6.918;2023-02-16T15:09:15;101635.63;;;11.39;100.00
27705;BME280;15109;50.992;6.918;2023-02-16T15:12:37;101636.66;;;11.30;100.00
27705;BME280;15109;50.992;6.918;2023-02-16T15:15:59;101627.75;;;11.28;100.00
27705;BME280;15109;50.992;6.918;2023-02-16T15:19:22;101633.06;;;11.46;100.00
27705;BME280;15109;50.992;6.918;2023-02-16T15:22:47;101628.97;;;11.50;100.00
27705;BME280;15109;50.992;6.918;2023-02-16T15:26:15;101618.00;;;11.25;100.00
27705;BME280;15109;50.992;6.918;2023-02-16T15:29:39;101612.69;;;11.16;100.00
27705;BME280;15109;50.992;6.918;2023-02-16T15:33:04;101601.22;;;11.12;100.00
27705;BME280;15109;50.992;6.918;2023-02-16T15:36:43;101604.97;;;11.11;100.00
27705;BME280;15109;50.992;6.918;2023-02-16T15:40:24;101595.91;;;11.27;100.00
27705;BME280;15109;50.992;6.918;2023-02-16T16:53:49;101618.56;;;9.24;100.00
27705;BME280;15109;50.992;6.918;2023-02-16T16:57:14;101622.00;;;9.26;100.00
27705;BME280;15109;50.992;6.918;2023-02-16T17:00:38;101609.53;;;9.24;100.00
27705;BME280;15109;50.992;6.918;2023-02-16T17:03:59;101614.84;;;9.25;100.00
27705;BME280;15109;50.992;6.918;2023-02-16T17:07:21;101612.97;;;9.26;100.00
27705;BME280;15109;50.992;6.918;2023-02-16T17:10:42;101603.44;;;9.30;100.00
27705;BME280;15109;50.992;6.918;2023-02-16T17:14:09;101611.50;;;9.31;100.00
27705;BME280;15109;50.992;6.918;2023-02-16T17:17:30;101616.94;;;9.31;100.00
27705;BME280;15109;50.992;6.918;2023-02-16T17:20:52;101615.91;;;9.32;100.00
27705;BME280;15109;50.992;6.918;2023-02-16T17:24:14;101611.03;;;9.36;100.00
27705;BME280;15109;50.992;6.918;2023-02-16T17:27:35;101609.50;;;9.41;100.00
27705;BME280;15109;50.992;6.918;2023-02-16T17:30:57;101607.50;;;9.43;100.00
27705;BME280;15109;50.992;6.918;2023-02-16T17:34:18;101616.69;;;9.42;100.00
27705;BME280;15109;50.992;6.918;2023-02-16T17:37:39;101607.50;;;9.43;100.00
27705;BME280;15109;50.992;6.918;2023-02-16T17:41:00;101607.31;;;9.45;100.00
27705;BME280;15109;50.992;6.918;2023-02-16T17:44:22;101597.25;;;9.45;100.00
27705;BME280;15109;50.992;6.918;2023-02-16T17:47:43;101591.03;;;9.53;100.00
27705;BME280;15109;50.992;6.918;2023-02-16T17:51:15;101598.56;;;9.59;100.00
27705;BME280;15109;50.992;6.918;2023-02-16T17:54:37;101602.41;;;9.66;100.00
27705;BME280;15109;50.992;6.918;2023-02-16T17:57:58;101594.41;;;9.73;100.00
27705;BME280;15109;50.992;6.918;2023-02-16T18:01:20;101611.22;;;9.86;100.00
27705;BME280;15109;50.992;6.918;2023-02-16T18:04:44;101614.81;;;9.86;100.00
27705;BME280;15109;50.992;6.918;2023-02-16T18:08:06;101614.97;;;9.85;100.00
27705;BME280;15109;50.992;6.918;2023-02-16T18:11:27;101620.66;;;9.91;100.00
27705;BME280;15109;50.992;6.918;2023-02-16T18:14:48;101620.81;;;9.90;100.00
27705;BME280;15109;50.992;6.918;2023-02-16T18:18:10;101617.22;;;9.89;100.00
27705;BME280;15109;50.992;6.918;2023-02-16T18:21:32;101627.34;;;9.97;100.00
27705;BME280;15109;50.992;6.918;2023-02-16T18:24:53;101627.53;;;9.95;100.00
27705;BME280;15109;50.992;6.918;2023-02-16T18:28:17;101634.75;;;10.05;100.00
27705;BME280;15109;50.992;6.918;2023-02-16T18:31:38;101626.25;;;10.08;100.00
27705;BME280;15109;50.992;6.918;2023-02-16T18:35:02;101631.00;;;10.06;100.00
27705;BME280;15109;50.992;6.918;2023-02-16T18:38:25;101636.94;;;10.01;100.00
27705;BME280;15109;50.992;6.918;2023-02-16T18:41:46;101634.19;;;10.01;100.00
27705;BME280;15109;50.992;6.918;2023-02-16T18:45:08;101636.88;;;9.93;100.00
27705;BME280;15109;50.992;6.918;2023-02-16T18:48:29;101647.28;;;9.89;100.00
27705;BME280;15109;50.992;6.918;2023-02-16T18:51:50;101644.22;;;9.92;100.00
27705;BME280;15109;50.992;6.918;2023-02-16T18:55:12;101638.75;;;9.92;100.00
27705;BME280;15109;50.992;6.918;2023-02-16T18:58:34;101644.06;;;9.94;100.00
27705;BME280;15109;50.992;6.918;2023-02-16T19:01:57;101651.03;;;9.88;100.00
27705;BME280;15109;50.992;6.918;2023-02-16T19:05:18;101641.66;;;9.91;100.00
27705;BME280;15109;50.992;6.918;2023-02-16T19:08:39;101646.81;;;9.94;100.00
27705;BME280;15109;50.992;6.918;2023-02-16T19:12:01;101637.75;;;9.93;100.00
27705;BME280;15109;50.992;6.918;2023-02-16T19:15:22;101641.66;;;9.91;100.00
27705;BME280;15109;50.992;6.918;2023-02-16T19:18:43;101637.75;;;9.93;100.00
27705;BME280;15109;50.992;6.918;2023-02-16T19:22:04;101640.41;;;9.85;100.00
27705;BME280;15109;50.992;6.918;2023-02-16T19:25:26;101640.03;;;9.80;100.00
27705;BME280;15109;50.992;6.918;2023-02-16T19:28:49;101645.69;;;9.79;100.00
27705;BME280;15109;50.992;6.918;2023-02-16T19:32:10;101647.56;;;9.78;100.00
27705;BME280;15109;50.992;6.918;2023-02-16T19:35:31;101654.16;;;9.76;100.00
27705;BME280;15109;50.992;6.918;2023-02-16T19:38:52;101656.13;;;9.83;100.00
27705;BME280;15109;50.992;6.918;2023-02-16T19:42:13;101651.59;;;9.92;100.00
27705;BME280;15109;50.992;6.918;2023-02-16T19:45:34;101648.38;;;9.96;100.00
27705;BME280;15109;50.992;6.918;2023-02-16T19:48:57;101641.50;;;9.92;100.00
27705;BME280;15109;50.992;6.918;2023-02-16T19:52:19;101639.56;;;9.85;100.00
27705;BME280;15109;50.992;6.918;2023-02-16T19:55:41;101641.28;;;9.86;100.00
27705;BME280;15109;50.992;6.918;2023-02-16T19:59:02;101640.56;;;9.84;100.00
27705;BME280;15109;50.992;6.918;2023-02-16T20:02:23;101653.00;;;9.78;100.00
27705;BME280;15109;50.992;6.918;2023-02-16T20:05:44;101635.38;;;9.73;100.00
27705;BME280;15109;50.992;6.918;2023-02-16T20:09:05;101644.03;;;9.68;100.00
27705;BME280;15109;50.992;6.918;2023-02-16T20:12:26;101639.91;;;9.64;100.00
27705;BME280;15109;50.992;6.918;2023-02-16T20:15:48;101641.25;;;9.60;100.00
27705;BME280;15109;50.992;6.918;2023-02-16T20:19:09;101636.25;;;9.55;100.00
27705;BME280;15109;50.992;6.918;2023-02-16T20:22:30;101637.13;;;9.56;100.00
27705;BME280;15109;50.992;6.918;2023-02-16T20:25:51;101626.06;;;9.57;100.00
27705;BME280;15109;50.992;6.918;2023-02-16T20:29:13;101611.06;;;9.62;100.00
27705;BME280;15109;50.992;6.918;2023-02-16T20:32:36;101622.91;;;9.70;100.00
27705;BME280;15109;50.992;6.918;2023-02-16T20:35:57;101616.53;;;9.62;100.00
27705;BME280;15109;50.992;6.918;2023-02-16T20:39:18;101608.63;;;9.58;100.00
27705;BME280;15109;50.992;6.918;2023-02-16T20:42:39;101605.69;;;9.52;100.00
27705;BME280;15109;50.992;6.918;2023-02-16T20:46:01;101606.69;;;9.51;100.00
27705;BME280;15109;50.992;6.918;2023-02-16T20:49:23;101608.19;;;9.45;100.00
27705;BME280;15109;50.992;6.918;2023-02-16T20:52:44;101601.97;;;9.53;100.00
27705;BME280;15109;50.992;6.918;2023-02-16T20:56:12;101597.25;;;9.45;100.00
27705;BME280;15109;50.992;6.918;2023-02-16T20:59:37;101601.03;;;9.44;100.00
27705;BME280;15109;50.992;6.918;2023-02-16T21:02:58;101593.19;;;9.49;100.00
27705;BME280;15109;50.992;6.918;2023-02-16T21:06:19;101594.25;;;9.48;100.00
27705;BME280;15109;50.992;6.918;2023-02-16T21:09:40;101599.91;;;9.55;100.00
27705;BME280;15109;50.992;6.918;2023-02-16T21:13:02;101602.56;;;9.47;100.00
27705;BME280;15109;50.992;6.918;2023-02-16T21:16:24;101600.72;;;9.47;100.00
27705;BME280;15109;50.992;6.918;2023-02-16T21:19:45;101589.78;;;9.47;100.00
27705;BME280;15109;50.992;6.918;2023-02-16T21:23:06;101586.19;;;9.47;100.00
27705;BME280;15109;50.992;6.918;2023-02-16T21:26:28;101583.78;;;9.44;100.00